Flight Track Log - Related Links

Times and Time Zones

All times are in EDT time to prevent confusion due to time zone crossing. See the FLG3861 flight status page for this flight to view local times or setup timezone preferences in your user account.

Time Position Orientation Groundspeed Altitude Reporting Facility
EDT Latitude Longitude Course Direction KTS MPH feet Rate Location/Type
Sun 09:39:42 PM 42.2261 -83.3531 33° Northeast 148 170 1,400  Level Cleveland Center
Sun 09:40:00 PM 42.2372 -83.3433 33° Northeast 157 181 2,000 1,976 Climbing Cleveland Center
Sun 09:41:07 PM 42.2872 -83.2939 36° Northeast 229 264 4,200 1,692 Climbing Cleveland Center
Sun 09:41:18 PM 42.2878 -83.2933 36° Northeast 204 235 4,200 2,556 Level Cleveland Center
Sun 09:42:01 PM 42.3414 -83.2422 35° Northeast 269 310 6,500 2,710 Climbing Cleveland Center
Sun 09:42:20 PM 42.3475 -83.2281 60° Northeast 264 304 7,000 2,656 Climbing Cleveland Center
Sun 09:43:02 PM 42.3617 -83.1433 77° East 287 330 9,200 2,459 Climbing Cleveland Center
Sun 09:43:21 PM 42.3608 -83.1289 94° East 283 326 9,500 2,175 Climbing Cleveland Center
Sun 09:44:22 PM 42.3628 -82.9925 89° East 299 344 12,100 1,951 Climbing Cleveland Center
Sun 09:45:24 PM 42.3642 -82.8711 89° East 315 362 13,500 1,317 Climbing Cleveland Center
Sun 09:46:25 PM 42.3642 -82.7383 90° East 344 396 14,800 1,317 Climbing Cleveland Center
Sun 09:47:27 PM 42.3653 -82.5994 89° East 364 419 16,200 1,317 Climbing Cleveland Center
Sun 09:48:28 PM 42.3653 -82.4581 90° East 373 429 17,500 1,171 Climbing Cleveland Center
Sun 09:49:30 PM 42.3653 -82.3136 90° East 384 442 18,600 780 Climbing Cleveland Center
Sun 09:50:31 PM 42.3658 -82.1622 90° East 399 459 19,100 488 Climbing Cleveland Center
Sun 09:51:33 PM 42.3664 -81.9869 90° East 419 482 19,600 537 Climbing Cleveland Center
Sun 09:52:34 PM 42.3664 -81.8211 90° East 433 498 20,200 541 Climbing Cleveland Center
Sun 09:53:35 PM 42.3664 -81.6519 90° East 442 509 20,700 488 Climbing Cleveland Center
Sun 09:54:37 PM 42.3656 -81.4808 90° East 448 516 21,200 488 Climbing Cleveland Center
Sun 09:55:38 PM 42.3644 -81.3094 90° East 451 519 21,700 488 Climbing Cleveland Center
Sun 09:56:40 PM 42.3631 -81.1372 91° East 452 520 22,200 488 Climbing Cleveland Center
Sun 09:57:41 PM 42.3611 -80.9644 91° East 454 522 22,700 488 Climbing Cleveland Center
Sun 09:58:43 PM 42.3603 -80.7933 90° East 452 520 23,200 488 Climbing Cleveland Center
Sun 09:59:44 PM 42.3581 -80.6217 91° East 451 519 23,700 541 Climbing Cleveland Center
Sun 10:00:45 PM 42.3556 -80.4200 91° East 457 526 24,300 537 Climbing Cleveland Center
Sun 10:01:47 PM 42.3536 -80.2478 91° East 456 525 24,800 341 Climbing Cleveland Center
Sun 10:02:48 PM 42.3506 -80.0731 91° East 462 532 25,000 98 Climbing Cleveland Center
Sun 10:03:49 PM 42.3472 -79.8931 91° East 470 541 25,000  Level Cleveland Center
Sun 10:04:51 PM 42.3436 -79.7153 92° East 476 548 25,000  Level Cleveland Center
Sun 10:05:52 PM 42.3400 -79.5353 91° East 481 554 25,000  Level Cleveland Center
Sun 10:06:53 PM 42.3356 -79.3556 92° East 481 554 25,000  Level Cleveland Center
Sun 10:07:55 PM 42.3319 -79.1739 91° East 485 558 25,000  Level Cleveland Center
Sun 10:08:56 PM 42.3269 -78.9917 92° East 487 560 25,000  Level Cleveland Center
Sun 10:09:57 PM 42.3219 -78.7972 92° East 483 556 25,000  Level Cleveland Center
Sun 10:10:58 PM 42.3167 -78.6136 92° East 490 564 25,000  Level Cleveland Center
Sun 10:12:00 PM 42.3111 -78.4308 92° East 490 564 25,000 -195 Level Cleveland Center
Sun 10:13:01 PM 42.3050 -78.2497 93° East 488 562 24,600 -934 Descending Cleveland Center
Sun 10:14:02 PM 42.2994 -78.0717 92° East 483 556 23,100 -1,623 Descending Cleveland Center
Sun 10:15:03 PM 42.2931 -77.8636 92° East 472 543 21,300 -1,610 Descending Cleveland Center
Sun 10:16:05 PM 42.2864 -77.6950 93° East 461 531 19,800 -1,463 Descending Cleveland Center
Sun 10:17:06 PM 42.2794 -77.5306 93° East 450 518 18,300 -1,328 Descending Cleveland Center
Sun 10:18:07 PM 42.2733 -77.3686 93° East 441 507 17,100 -590 Descending Cleveland Center
Sun 10:19:08 PM 42.2664 -77.2056 93° East 439 505 17,100 -59 Level Cleveland Center
Sun 10:19:48 PM 42.2603 -77.0722 93° East 446 513 17,000 -1,080 Descending New York Center
Sun 10:20:48 PM 42.2517 -76.9172 94° East 441 507 15,300 -1,850 Descending New York Center
Sun 10:21:48 PM 42.2481 -76.7797 92° East 407 468 13,300 -1,900 Descending New York Center
Sun 10:22:48 PM 42.2381 -76.6497 96° East 370 426 11,500 -1,800 Descending New York Center
Sun 10:23:48 PM 42.2394 -76.5322 89° East 339 390 9,700 -1,850 Descending New York Center
Sun 10:24:48 PM 42.2450 -76.4181 86° East 315 362 7,800 -1,900 Descending New York Center
Sun 10:25:48 PM 42.2522 -76.3122 85° East 293 337 5,900 -1,400 Descending New York Center
Sun 10:26:48 PM 42.2522 -76.2197 90° East 269 310 5,000 -950 Descending New York Center
Sun 10:27:48 PM 42.2372 -76.1344 103° East 243 280 4,000 -800 Descending New York Center
Sun 10:28:48 PM 42.1811 -76.0878 148° Southeast 216 249 3,400 -300 Descending New York Center
Sun 10:29:48 PM 42.1294 -76.0361 143° Southeast 221 254 3,400 -100 Level New York Center
Sun 10:30:48 PM 42.1219 -75.9686 98° East 192 221 3,200 -350 Descending New York Center
Sun 10:31:48 PM 42.1544 -75.9375 35° Northeast 130 150 2,700 -650 Descending New York Center
Sun 10:32:48 PM 42.1847 -75.9622 329° Northwest 76 87 1,900 -400 Descending New York Center
Sun 10:33:48 PM 42.2017 -75.9525 23° Northeast 76 87 1,900  Level New York Center

Login

Don't have an account? Register now (free) for customized features, flight alerts, and more!